Mineral'Nye Vody, Russia
Current Conditions -  °F | °C
As of 6:00 PM on Tuesday 21 Oct 2014 (Local Time) from URMM Reporting Station
Broken Clouds Broken Clouds  
Wind Chill: 55°   Ceiling: 9300
Heat Index: 55°   Visibility: 6mi
Dew Point: 41°   Wind: 0mph
Humidity: 58%   Direction: NA
Pressure: 29.91"   Gusts: NA
Location:  44.23°N, 43.07°E
Report Text: URMM 211500Z 00000MPS 9999 BKN093 13/05 Q1013 R30/CLRD70 NOSIGRMK QFE731/0975
Loading
Personal Weather Stations






























Interactive Weather Map
Tropical Storm Tracking
New forecast layout! Learn more

10-Day Weather Forecast

Advertisements
Track Severe Weather on mobile